Time;durP1;ratioP1;P1;durP2;ratioP2;P2;SDS_P1;SDS_P2;PMS_P1;PMS_P2;Temp;Humidity;BMP_temperature;BMP_pressure;BME280_temperature;BME280_humidity;BME280_pressure;Samples;Min_cycle;Max_cycle;Signal;HPM_P1;HPM_P2
2021/10/22 00:00:55;;;;;;;;;11.25;10.25;;;;;7.94;66.89;101219.69;5075500;27;71125;-61
2021/10/22 00:03:22;;;;;;;;;13.00;11.00;;;;;7.91;66.81;101230.38;5076300;28;45415;-61
2021/10/22 00:05:49;;;;;;;;;10.00;8.50;;;;;7.90;66.94;101226.06;5077728;27;45235;-61
2021/10/22 00:08:14;;;;;;;;;13.75;10.75;;;;;7.91;66.98;101237.41;5077598;27;45530;-61
2021/10/22 00:10:39;;;;;;;;;13.00;10.25;;;;;7.87;67.17;101237.59;5077381;27;46188;-62
2021/10/22 00:13:05;;;;;;;;;11.75;10.00;;;;;7.87;67.21;101240.22;5076268;27;45295;-61
2021/10/22 00:15:30;;;;;;;;;12.25;11.75;;;;;7.85;67.29;101239.47;5077652;27;45355;-62
2021/10/22 00:17:56;;;;;;;;;11.50;9.00;;;;;7.84;67.41;101244.78;5077513;28;45368;-61
2021/10/22 00:20:21;;;;;;;;;14.75;14.75;;;;;7.82;67.35;101239.66;5076749;28;61494;-61
2021/10/22 00:22:46;;;;;;;;;16.25;12.25;;;;;7.80;67.37;101238.94;5076819;28;45387;-61
2021/10/22 00:25:12;;;;;;;;;15.00;12.00;;;;;7.78;67.59;101243.44;5076264;28;45351;-61
2021/10/22 00:27:37;;;;;;;;;11.25;11.25;;;;;7.76;67.63;101244.44;5077412;28;45449;-61
2021/10/22 00:30:03;;;;;;;;;15.25;13.25;;;;;7.75;67.58;101241.00;5075791;27;47940;-61
2021/10/22 00:32:29;;;;;;;;;13.50;12.75;;;;;7.73;67.35;101246.31;5077047;28;45342;-61
2021/10/22 00:34:54;;;;;;;;;18.00;13.00;;;;;7.72;67.27;101246.44;5076612;28;56223;-61
2021/10/22 00:37:21;;;;;;;;;13.00;13.00;;;;;7.71;67.11;101242.97;5077052;28;45350;-61
2021/10/22 00:39:47;;;;;;;;;17.25;14.00;;;;;7.72;66.62;101243.81;5076966;28;45346;-61
2021/10/22 00:42:12;;;;;;;;;17.25;15.00;;;;;7.75;66.81;101242.78;5075590;28;45339;-61
2021/10/22 00:44:38;;;;;;;;;18.50;15.00;;;;;7.75;66.63;101235.78;5075927;28;45540;-61
2021/10/22 00:47:04;;;;;;;;;15.25;14.00;;;;;7.75;66.66;101237.53;5077072;27;45215;-61
2021/10/22 00:49:30;;;;;;;;;15.75;14.00;;;;;7.76;66.68;101244.44;5076416;28;46289;-61
2021/10/22 00:51:56;;;;;;;;;16.75;14.75;;;;;7.77;66.65;101246.13;5076750;28;45231;-61
2021/10/22 00:54:21;;;;;;;;;16.75;12.75;;;;;7.77;66.74;101235.66;5076836;27;45388;-61
2021/10/22 00:56:50;;;;;;;;;23.25;14.50;;;;;7.76;66.60;101242.69;5076985;27;45279;-61
2021/10/22 00:59:15;;;;;;;;;18.50;14.00;;;;;7.77;66.53;101241.75;5076738;28;46555;-61
2021/10/22 01:01:41;;;;;;;;;18.75;15.00;;;;;7.75;66.74;101241.00;5075582;28;45371;-62
2021/10/22 01:04:07;;;;;;;;;20.00;15.75;;;;;7.73;66.82;101238.47;5075319;28;45388;-61
2021/10/22 01:06:36;;;;;;;;;16.00;14.00;;;;;7.73;66.83;101243.72;5076850;27;45292;-61
2021/10/22 01:09:03;;;;;;;;;18.50;15.25;;;;;7.69;66.82;101238.78;5076574;28;46108;-61
2021/10/22 01:11:28;;;;;;;;;17.75;14.00;;;;;7.65;66.97;101247.75;5075466;28;45339;-61
2021/10/22 01:13:54;;;;;;;;;19.25;16.75;;;;;7.62;67.10;101250.59;5074713;27;60001;-61
2021/10/22 01:16:19;;;;;;;;;16.75;13.50;;;;;7.61;66.96;101249.75;5075754;28;45573;-61
2021/10/22 01:18:47;;;;;;;;;18.00;16.25;;;;;7.58;66.75;101258.63;5075666;27;69321;-61
2021/10/22 01:21:12;;;;;;;;;14.25;13.00;;;;;7.57;66.91;101262.19;5076618;28;45876;-61
2021/10/22 01:23:37;;;;;;;;;17.75;17.00;;;;;7.55;66.70;101260.63;5075304;28;63997;-62
2021/10/22 01:26:03;;;;;;;;;19.50;14.25;;;;;7.52;66.61;101264.25;5075948;28;60846;-61
2021/10/22 01:28:29;;;;;;;;;12.50;12.00;;;;;7.49;66.54;101268.84;5075522;28;64703;-61
2021/10/22 01:30:54;;;;;;;;;14.25;13.00;;;;;7.42;66.15;101266.63;5075256;28;45292;-62
2021/10/22 01:33:21;;;;;;;;;14.00;13.50;;;;;7.39;65.67;101268.59;5076523;28;45457;-61
2021/10/22 01:35:48;;;;;;;;;19.00;12.75;;;;;7.37;65.89;101271.28;5076384;27;45462;-62
2021/10/22 01:38:15;;;;;;;;;18.00;14.50;;;;;7.37;66.01;101275.69;5076254;28;45508;-62
2021/10/22 01:40:40;;;;;;;;;13.00;11.75;;;;;7.35;66.30;101272.34;5076240;27;45717;-61
2021/10/22 01:43:06;;;;;;;;;16.25;14.25;;;;;7.33;66.18;101264.56;5076127;28;45326;-61
2021/10/22 01:45:31;;;;;;;;;17.00;13.00;;;;;7.34;66.22;101268.06;5076278;28;45289;-61
2021/10/22 01:47:57;;;;;;;;;13.25;13.00;;;;;7.34;66.03;101275.88;5074770;28;45979;-61
2021/10/22 01:50:22;;;;;;;;;17.50;15.75;;;;;7.33;66.03;101271.59;5075985;27;45480;-61
2021/10/22 01:52:49;;;;;;;;;19.00;16.25;;;;;7.34;65.79;101281.13;5075065;28;45453;-62
2021/10/22 01:55:14;;;;;;;;;18.00;18.00;;;;;7.33;65.59;101274.22;5075612;28;45353;-61
2021/10/22 01:57:39;;;;;;;;;20.50;17.75;;;;;7.31;65.58;101274.28;5074768;28;45453;-61
2021/10/22 02:00:05;;;;;;;;;18.75;15.50;;;;;7.28;65.93;101280.56;5076857;28;45340;-61
2021/10/22 02:02:31;;;;;;;;;18.50;16.75;;;;;7.27;65.44;101275.41;5078390;28;45264;-61
2021/10/22 02:04:56;;;;;;;;;27.00;21.00;;;;;7.24;65.34;101268.63;5078836;28;62426;-61
2021/10/22 02:07:22;;;;;;;;;20.25;18.25;;;;;7.23;65.67;101268.69;5078607;28;70251;-62
2021/10/22 02:09:47;;;;;;;;;17.75;14.50;;;;;7.26;65.83;101274.59;5079639;28;45230;-61
2021/10/22 02:12:12;;;;;;;;;15.75;15.75;;;;;7.25;65.98;101265.06;5078535;27;64187;-61
2021/10/22 02:14:38;;;;;;;;;18.25;15.25;;;;;7.26;65.73;101264.13;5079239;27;46796;-61
2021/10/22 02:17:03;;;;;;;;;16.00;13.00;;;;;7.26;65.58;101271.13;5079342;27;46287;-61
2021/10/22 02:19:29;;;;;;;;;13.50;11.50;;;;;7.24;65.90;101271.22;5078157;28;45272;-61
2021/10/22 02:21:54;;;;;;;;;15.75;14.00;;;;;7.23;65.69;101268.69;5079491;28;45310;-62
2021/10/22 02:24:20;;;;;;;;;14.75;12.75;;;;;7.15;65.68;101271.81;5079078;27;45310;-62
2021/10/22 02:26:45;;;;;;;;;16.75;14.50;;;;;7.11;65.97;101260.72;5079085;28;46234;-61
2021/10/22 02:29:10;;;;;;;;;13.00;12.50;;;;;7.11;66.35;101259.88;5078789;28;55940;-61
2021/10/22 02:31:36;;;;;;;;;13.50;12.00;;;;;7.11;65.77;101259.88;5078342;28;61453;-61
2021/10/22 02:34:01;;;;;;;;;18.50;14.50;;;;;7.06;65.37;101260.16;5078805;27;47359;-62
2021/10/22 02:36:27;;;;;;;;;16.00;12.00;;;;;7.03;65.04;101262.09;5079033;27;45661;-61
2021/10/22 02:38:52;;;;;;;;;13.00;12.25;;;;;7.03;65.30;101262.09;5079075;27;45446;-61
2021/10/22 02:41:17;;;;;;;;;15.50;14.00;;;;;7.01;65.07;101267.44;5079131;28;45697;-61
2021/10/22 02:43:43;;;;;;;;;15.00;12.25;;;;;6.93;64.91;101262.66;5078126;27;63633;-61
2021/10/22 02:46:08;;;;;;;;;16.50;15.00;;;;;6.90;65.12;101262.03;5076969;28;46190;-61
2021/10/22 02:48:34;;;;;;;;;15.50;12.75;;;;;6.87;64.98;101263.06;5078146;28;66754;-61
2021/10/22 02:50:59;;;;;;;;;15.25;15.00;;;;;6.86;64.96;101269.22;5078037;27;67024;-61
2021/10/22 02:53:24;;;;;;;;;15.50;13.50;;;;;6.83;65.04;101272.03;5078263;27;59488;-61
2021/10/22 02:55:50;;;;;;;;;18.50;13.25;;;;;6.79;64.97;101270.53;5078652;28;46363;-61
2021/10/22 02:58:15;;;;;;;;;15.75;12.25;;;;;6.74;65.31;101283.03;5077688;28;71969;-61
2021/10/22 03:00:40;;;;;;;;;18.75;16.25;;;;;6.73;65.33;101278.75;5078796;27;45249;-61
2021/10/22 03:03:06;;;;;;;;;13.75;12.25;;;;;6.71;65.30;101276.19;5076596;27;65410;-61
2021/10/22 03:05:32;;;;;;;;;11.50;11.50;;;;;6.68;65.48;101274.63;5076485;28;46297;-61
2021/10/22 03:07:58;;;;;;;;;15.50;13.50;;;;;6.65;65.68;101276.56;5078237;27;45401;-61
2021/10/22 03:10:23;;;;;;;;;16.25;13.25;;;;;6.62;65.79;101274.16;5078654;28;45266;-61
2021/10/22 03:12:49;;;;;;;;;14.50;12.75;;;;;6.59;65.75;101275.16;5077104;28;45350;-61
2021/10/22 03:15:15;;;;;;;;;16.00;13.50;;;;;6.60;65.78;101278.63;5076310;28;73617;-61
2021/10/22 03:17:40;;;;;;;;;15.00;12.25;;;;;6.63;65.56;101275.81;5077294;27;45457;-61
2021/10/22 03:20:06;;;;;;;;;19.00;12.25;;;;;6.62;65.73;101284.63;5077916;28;54317;-61
2021/10/22 03:22:32;;;;;;;;;15.00;12.00;;;;;6.60;65.83;101278.63;5076830;28;45677;-61
2021/10/22 03:24:57;;;;;;;;;16.75;15.50;;;;;6.56;66.12;101280.56;5077585;27;69081;-61
2021/10/22 03:27:23;;;;;;;;;14.25;12.25;;;;;6.58;65.89;101270.06;5077872;27;57743;-61
2021/10/22 03:29:49;;;;;;;;;13.25;13.00;;;;;6.58;65.38;101281.31;5078382;28;45459;-61
2021/10/22 03:32:14;;;;;;;;;20.00;15.25;;;;;6.57;65.07;101284.88;5078072;28;48063;-61
2021/10/22 03:34:40;;;;;;;;;19.50;16.00;;;;;6.53;65.01;101270.31;5078064;28;46009;-61
2021/10/22 03:37:05;;;;;;;;;19.00;17.25;;;;;6.51;65.25;101273.03;5076963;28;45292;-61
2021/10/22 03:39:31;;;;;;;;;19.00;13.25;;;;;6.47;65.59;101278.50;5077360;28;66411;-61
2021/10/22 03:41:56;;;;;;;;;13.00;12.00;;;;;6.45;65.75;101278.63;5077669;28;50792;-61
2021/10/22 03:44:22;;;;;;;;;18.25;12.50;;;;;6.46;65.75;101280.28;5076578;28;46218;-60
2021/10/22 03:46:47;;;;;;;;;15.25;14.75;;;;;6.46;65.33;101279.44;5077293;28;66485;-61
2021/10/22 03:49:13;;;;;;;;;16.00;12.00;;;;;6.42;65.10;101281.41;5077092;27;60765;-61
2021/10/22 03:51:38;;;;;;;;;15.50;12.75;;;;;6.41;65.11;101269.28;5077388;27;57940;-61
2021/10/22 03:54:03;;;;;;;;;16.00;14.00;;;;;6.39;65.02;101281.59;5077007;27;72970;-61
2021/10/22 03:56:29;;;;;;;;;16.75;14.75;;;;;6.38;65.24;101277.28;5076924;27;66923;-61
2021/10/22 03:58:54;;;;;;;;;16.50;12.25;;;;;6.37;65.17;101276.44;5078095;27;45432;-62
2021/10/22 04:01:20;;;;;;;;;15.00;11.00;;;;;6.37;65.51;101281.66;5075999;27;59112;-61
2021/10/22 04:03:46;;;;;;;;;9.50;9.25;;;;;6.34;65.43;101275.78;5077382;27;46412;-61
2021/10/22 04:06:11;;;;;;;;;15.25;14.50;;;;;6.30;65.45;101282.97;5075795;28;57474;-61
2021/10/22 04:08:37;;;;;;;;;14.50;13.00;;;;;6.24;65.64;101281.53;5077664;27;45462;-61
2021/10/22 04:11:03;;;;;;;;;11.50;11.25;;;;;6.24;65.54;101283.31;5058886;28;45589;-61
2021/10/22 04:13:29;;;;;;;;;17.50;11.00;;;;;6.24;65.40;101285.94;5076150;27;45231;-61
2021/10/22 04:15:55;;;;;;;;;19.50;14.25;;;;;6.23;65.36;101292.09;5077422;28;45807;-61
2021/10/22 04:18:21;;;;;;;;;19.75;14.25;;;;;6.21;65.75;101289.56;5077645;28;45213;-61
2021/10/22 04:20:46;;;;;;;;;14.75;10.75;;;;;6.20;65.66;101292.25;5077394;28;45517;-61
2021/10/22 04:23:12;;;;;;;;;14.50;13.75;;;;;6.14;65.63;101287.41;5075592;27;67105;-61
2021/10/22 04:25:37;;;;;;;;;22.00;16.50;;;;;6.09;65.81;101291.09;5077258;27;45277;-61
2021/10/22 04:28:03;;;;;;;;;16.00;13.25;;;;;6.05;65.82;101288.78;5076036;28;45349;-61
2021/10/22 04:30:28;;;;;;;;;14.75;13.50;;;;;6.04;65.62;101295.75;5077211;28;45326;-61
2021/10/22 04:32:54;;;;;;;;;15.00;11.25;;;;;6.02;65.85;101294.16;5075554;28;49411;-61
2021/10/22 04:35:19;;;;;;;;;15.50;12.25;;;;;5.99;65.48;101302.97;5076619;28;60250;-61
2021/10/22 04:37:59;;;;;;;;;15.25;13.50;;;;;5.94;65.63;101305.84;5077001;28;45701;-61
2021/10/22 04:42:55;;;;;;;;;12.25;10.50;;;;;5.90;65.76;101319.13;5075610;27;45427;-61
2021/10/22 04:45:21;;;;;;;;;12.00;11.00;;;;;5.87;65.75;101320.16;5057854;28;69012;-61
2021/10/22 04:47:46;;;;;;;;;15.75;11.75;;;;;5.86;65.75;101315.88;5075425;27;46558;-61
2021/10/22 04:50:12;;;;;;;;;15.50;13.75;;;;;5.89;66.04;101327.88;5075507;28;45546;-61
2021/10/22 04:52:37;;;;;;;;;15.75;13.00;;;;;5.87;65.75;101327.97;5073885;27;46532;-61
2021/10/22 04:55:04;;;;;;;;;12.75;10.25;;;;;5.87;66.09;101324.50;5075073;28;45483;-61
2021/10/22 04:57:29;;;;;;;;;16.00;13.75;;;;;5.85;66.40;101321.16;5074827;28;45381;-61
2021/10/22 04:59:54;;;;;;;;;15.00;14.00;;;;;5.82;66.19;101316.97;5074699;27;66137;-61
2021/10/22 05:02:20;;;;;;;;;18.00;14.00;;;;;5.79;66.50;101323.19;5074485;28;72136;-61
2021/10/22 05:04:45;;;;;;;;;16.50;13.00;;;;;5.78;66.53;101321.53;5073298;28;68747;-61
2021/10/22 05:07:10;;;;;;;;;14.75;13.25;;;;;5.77;65.84;101314.63;5076458;28;45360;-61
2021/10/22 05:09:36;;;;;;;;;18.75;14.50;;;;;5.75;65.80;101313.88;5076185;28;60910;-62
2021/10/22 05:12:05;;;;;;;;;15.50;13.50;;;;;5.72;65.64;101311.44;5075835;28;64579;-61
2021/10/22 05:14:32;;;;;;;;;15.00;12.25;;;;;5.71;66.01;101322.78;5076489;28;45942;-61
2021/10/22 05:16:58;;;;;;;;;13.00;11.50;;;;;5.71;65.81;101324.53;5076724;28;45252;-61
2021/10/22 05:19:23;;;;;;;;;17.00;14.25;;;;;5.71;65.90;101322.78;5076598;28;45220;-61
2021/10/22 05:21:48;;;;;;;;;14.25;14.25;;;;;5.69;66.25;101322.03;5075638;27;64813;-61
2021/10/22 05:24:14;;;;;;;;;18.25;14.00;;;;;5.68;66.05;101322.94;5075362;28;62220;-61
2021/10/22 05:26:39;;;;;;;;;18.75;15.00;;;;;5.71;66.01;101330.59;5075467;28;64627;-61
2021/10/22 05:29:04;;;;;;;;;19.75;17.25;;;;;5.71;65.84;101328.00;5075777;28;55196;-61
2021/10/22 05:31:30;;;;;;;;;21.50;19.25;;;;;5.70;65.83;101333.28;5076162;28;45471;-60
2021/10/22 05:33:55;;;;;;;;;21.00;14.25;;;;;5.69;65.93;101335.06;5076320;28;45251;-61
2021/10/22 05:36:21;;;;;;;;;14.75;14.25;;;;;5.67;66.04;101336.91;5076683;27;57760;-61
2021/10/22 05:38:48;;;;;;;;;18.25;15.00;;;;;5.65;65.72;101331.75;5079838;28;45560;-61
2021/10/22 05:41:14;;;;;;;;;15.00;14.75;;;;;5.62;66.16;101331.94;5078058;27;47920;-61
2021/10/22 05:43:39;;;;;;;;;14.25;14.00;;;;;5.60;66.18;101331.16;5078982;28;65713;-61
2021/10/22 05:46:05;;;;;;;;;13.75;13.25;;;;;5.59;65.80;101331.28;5079171;28;59906;-61
2021/10/22 05:48:30;;;;;;;;;14.00;14.00;;;;;5.58;65.75;101332.19;5079813;27;45562;-61
2021/10/22 05:50:55;;;;;;;;;19.00;14.00;;;;;5.55;65.79;101330.59;5078810;28;68325;-61
2021/10/22 05:53:21;;;;;;;;;14.25;14.00;;;;;5.53;65.78;101331.59;5079268;27;45267;-61
2021/10/22 05:55:46;;;;;;;;;15.25;14.75;;;;;5.52;65.73;101329.91;5061429;27;45312;-61
2021/10/22 05:58:12;;;;;;;;;16.00;14.50;;;;;5.50;65.65;101338.66;5079345;27;45329;-61
2021/10/22 06:00:37;;;;;;;;;17.25;15.00;;;;;5.47;66.02;101336.22;5078365;28;45455;-61
2021/10/22 06:03:03;;;;;;;;;14.75;14.75;;;;;5.45;65.75;101334.63;5078712;28;63561;-61
2021/10/22 06:05:28;;;;;;;;;18.75;14.50;;;;;5.43;65.65;101337.31;5078794;28;65145;-61
2021/10/22 06:07:53;;;;;;;;;19.00;16.50;;;;;5.42;65.74;101340.84;5077327;27;57170;-61
2021/10/22 06:10:19;;;;;;;;;15.50;14.25;;;;;5.41;65.67;101344.38;5078158;27;74878;-61
2021/10/22 06:12:44;;;;;;;;;15.75;12.75;;;;;5.41;65.57;101339.16;5079325;27;45301;-60
2021/10/22 06:15:09;;;;;;;;;23.00;17.50;;;;;5.39;65.74;101350.59;5078788;27;52085;-61
2021/10/22 06:17:35;;;;;;;;;20.00;14.00;;;;;5.37;65.85;101349.84;5078845;28;53679;-61
2021/10/22 06:20:09;;;;;;;;;18.50;15.50;;;;;5.34;66.19;101349.06;5078948;27;45999;-61
2021/10/22 06:25:39;;;;;;;;;24.25;22.50;;;;;5.30;66.35;101362.38;5005140;28;45377;-61
2021/10/22 06:28:05;;;;;;;;;25.50;21.50;;;;;5.24;66.29;101353.09;5016562;28;45540;-60
2021/10/22 06:30:33;;;;;;;;;29.50;23.00;;;;;5.20;66.06;101362.84;5034325;28;46057;-60
2021/10/22 06:32:59;;;;;;;;;25.25;21.00;;;;;5.20;66.06;101370.66;5079084;27;45819;-60
2021/10/22 06:35:24;;;;;;;;;21.50;20.75;;;;;5.23;66.33;101379.25;5078358;28;59795;-60
2021/10/22 06:37:50;;;;;;;;;24.75;21.75;;;;;5.23;66.54;101371.44;5078869;28;45322;-60
2021/10/22 06:40:15;;;;;;;;;18.00;18.00;;;;;5.23;66.45;101377.47;5078934;27;45389;-60
2021/10/22 06:42:40;;;;;;;;;21.75;20.00;;;;;5.20;66.78;101378.47;5076644;28;70273;-60
2021/10/22 06:45:06;;;;;;;;;22.75;18.50;;;;;5.18;67.26;101375.09;5078727;28;47411;-60
2021/10/22 06:47:32;;;;;;;;;21.00;18.75;;;;;5.18;66.51;101380.31;5076979;27;45303;-60
2021/10/22 06:49:57;;;;;;;;;21.25;19.00;;;;;5.21;66.61;101397.53;5077037;27;53682;-60
2021/10/22 06:52:22;;;;;;;;;22.75;17.75;;;;;5.21;66.46;101397.53;5076612;28;59905;-60
2021/10/22 06:54:48;;;;;;;;;24.75;19.00;;;;;5.24;66.91;101404.38;5078684;28;45185;-60
2021/10/22 06:57:13;;;;;;;;;24.00;24.00;;;;;5.26;67.09;101403.34;5078418;28;52190;-60
2021/10/22 06:59:39;;;;;;;;;21.00;17.50;;;;;5.27;67.55;101404.22;5077616;28;68296;-59
2021/10/22 07:02:04;;;;;;;;;22.00;20.00;;;;;5.28;67.62;101403.28;5078403;28;45235;-60
2021/10/22 07:04:29;;;;;;;;;22.50;20.25;;;;;5.33;67.64;101411.69;5077810;28;58403;-59
2021/10/22 07:09:39;;;;;;;;;26.75;20.50;;;;;5.41;67.63;101411.31;5078439;27;45431;-60
2021/10/22 07:12:04;;;;;;;;;21.50;19.25;;;;;5.45;67.50;101411.06;5077228;27;45367;-60
2021/10/22 07:14:34;;;;;;;;;24.50;20.00;;;;;5.51;67.92;101412.50;5077256;28;45321;-60
2021/10/22 07:16:59;;;;;;;;;20.75;18.00;;;;;5.55;68.33;101419.25;5078370;28;45389;-60
2021/10/22 07:19:25;;;;;;;;;27.50;24.00;;;;;5.60;68.06;101421.59;5059512;28;46206;-60
2021/10/22 07:21:51;;;;;;;;;27.50;21.25;;;;;5.62;68.20;101419.75;5078228;27;45369;-60
2021/10/22 07:24:22;;;;;;;;;32.50;28.00;;;;;5.67;68.64;101428.16;5078074;28;45395;-60
2021/10/22 07:26:48;;;;;;;;;32.75;28.00;;;;;5.71;68.26;101419.25;5077985;27;45417;-60
2021/10/22 07:29:14;;;;;;;;;30.25;27.50;;;;;5.74;68.54;101424.31;5077404;27;61275;-60
2021/10/22 07:31:39;;;;;;;;;32.50;28.25;;;;;5.81;68.55;101437.03;5078135;27;45337;-60
2021/10/22 07:34:04;;;;;;;;;30.25;27.00;;;;;5.87;68.55;101436.66;5076377;28;46108;-60
2021/10/22 07:36:30;;;;;;;;;35.75;31.25;;;;;5.94;68.59;101435.41;5075845;28;45480;-60
2021/10/22 07:38:55;;;;;;;;;41.75;35.00;;;;;5.99;68.84;101441.22;5073461;28;47106;-60
2021/10/22 07:41:21;;;;;;;;;34.75;30.25;;;;;6.02;68.91;101438.47;5076192;27;65497;-59
2021/10/22 07:43:47;;;;;;;;;38.75;32.75;;;;;6.09;68.87;101439.84;5076613;27;45317;-60
2021/10/22 07:46:13;;;;;;;;;38.75;31.75;;;;;6.16;68.78;101447.31;5075689;28;45621;-60
2021/10/22 07:48:40;;;;;;;;;30.50;27.50;;;;;6.20;68.98;101448.84;5076048;27;45439;-60
2021/10/22 07:51:05;;;;;;;;;29.75;29.50;;;;;6.24;69.18;101448.56;5076273;28;45468;-60
2021/10/22 07:53:31;;;;;;;;;30.50;30.25;;;;;6.30;69.34;101455.25;5075431;28;63163;-60
2021/10/22 07:55:56;;;;;;;;;38.25;29.50;;;;;6.36;69.12;101454.88;5074344;27;59931;-60
2021/10/22 07:58:21;;;;;;;;;43.50;37.25;;;;;6.42;69.49;101461.53;5073724;28;46023;-59
2021/10/22 08:00:47;;;;;;;;;37.25;32.50;;;;;6.50;69.57;101459.34;5075591;28;67449;-60
2021/10/22 08:03:13;;;;;;;;;51.75;37.75;;;;;6.59;69.42;101455.34;5076444;28;45414;-59
2021/10/22 08:05:38;;;;;;;;;48.25;40.00;;;;;6.71;69.39;101450.38;5076205;28;45529;-60
2021/10/22 08:08:06;;;;;;;;;52.00;40.00;;;;;6.83;69.65;101457.50;5073721;28;59200;-60
2021/10/22 08:10:32;;;;;;;;;53.75;44.25;;;;;6.94;69.47;101457.69;5072875;28;45431;-60
2021/10/22 08:12:57;;;;;;;;;54.00;42.75;;;;;7.10;69.75;101457.66;5076063;28;45249;-59
2021/10/22 08:15:22;;;;;;;;;55.75;41.50;;;;;7.30;69.90;101460.84;5056490;28;45402;-60
2021/10/22 08:17:48;;;;;;;;;54.75;41.75;;;;;7.53;69.65;101467.28;5075114;28;54293;-59
2021/10/22 08:20:21;;;;;;;;;52.75;43.00;;;;;7.80;69.56;101469.16;5072686;27;45466;-60
2021/10/22 08:22:46;;;;;;;;;53.25;41.00;;;;;8.11;69.23;101472.47;5075876;28;45474;-60
2021/10/22 08:25:12;;;;;;;;;51.50;41.75;;;;;8.39;68.77;101470.72;5074172;27;45504;-60
2021/10/22 08:27:42;;;;;;;;;50.00;38.75;;;;;8.72;68.40;101479.97;5072510;27;45778;-60
2021/10/22 08:30:10;;;;;;;;;51.00;40.25;;;;;9.04;67.64;101484.84;5073438;28;45999;-60
2021/10/22 08:32:36;;;;;;;;;50.00;40.25;;;;;9.35;67.46;101476.69;5074561;28;45526;-60
2021/10/22 08:35:02;;;;;;;;;53.50;43.00;;;;;9.65;66.86;101481.63;5073582;28;45529;-60
2021/10/22 08:37:28;;;;;;;;;47.25;37.50;;;;;9.95;66.70;101483.06;5073339;28;46298;-60
2021/10/22 08:39:55;;;;;;;;;34.00;32.00;;;;;10.25;66.09;101486.22;5073033;28;61706;-60
2021/10/22 08:42:21;;;;;;;;;29.50;26.00;;;;;10.54;65.39;101485.91;5072837;28;45454;-60
2021/10/22 08:44:47;;;;;;;;;25.50;22.75;;;;;10.82;65.02;101486.53;5072293;28;45694;-60
2021/10/22 08:47:12;;;;;;;;;17.25;16.50;;;;;11.10;64.04;101487.91;5072863;28;45434;-60
2021/10/22 08:49:38;;;;;;;;;16.25;15.00;;;;;11.37;63.93;101489.38;5073073;27;45400;-60
2021/10/22 08:52:05;;;;;;;;;19.00;17.00;;;;;11.63;63.34;101489.19;5073234;28;45899;-60
2021/10/22 08:54:32;;;;;;;;;17.25;14.00;;;;;11.91;62.46;101492.25;5071319;28;45517;-60
2021/10/22 08:56:58;;;;;;;;;14.00;14.00;;;;;12.18;62.04;101493.72;5073162;27;46543;-61
2021/10/22 08:59:23;;;;;;;;;13.50;13.50;;;;;12.42;61.41;101490.03;5073216;28;46001;-61
2021/10/22 09:02:14;;;;;;;;;15.75;15.75;;;;;12.68;60.92;101493.16;5072973;28;58541;-61
2021/10/22 09:04:41;;;;;;;;;14.75;14.50;;;;;12.93;60.13;101487.66;5074007;27;45667;-60
2021/10/22 09:07:06;;;;;;;;;16.25;14.50;;;;;13.17;59.65;101490.91;5073610;28;46292;-60
2021/10/22 09:09:32;;;;;;;;;17.00;16.25;;;;;13.42;59.09;101504.66;5071238;28;45501;-61
2021/10/22 09:11:58;;;;;;;;;22.50;18.00;;;;;13.64;58.56;101505.47;5072321;28;45496;-61
2021/10/22 09:14:25;;;;;;;;;19.25;17.00;;;;;13.85;58.20;101502.78;5072197;28;62518;-61
2021/10/22 09:16:53;;;;;;;;;16.00;13.00;;;;;14.04;57.33;101502.00;5073296;28;46482;-61
2021/10/22 09:19:41;;;;;;;;;14.00;12.75;;;;;14.25;57.04;101501.91;5071668;28;45734;-60
2021/10/22 09:22:29;;;;;;;;;15.75;13.00;;;;;14.47;56.45;101507.06;5072458;28;45502;-61
2021/10/22 09:24:58;;;;;;;;;12.75;11.25;;;;;14.66;55.76;101504.44;5071600;28;45662;-60
2021/10/22 09:27:36;;;;;;;;;15.50;12.25;;;;;14.84;54.84;101517.84;5069688;27;46261;-61
2021/10/22 09:30:03;;;;;;;;;13.00;9.00;;;;;15.01;54.92;101515.47;5074026;28;45513;-60
2021/10/22 09:32:29;;;;;;;;;10.50;9.25;;;;;15.21;54.16;101518.06;5073618;28;45524;-61
2021/10/22 09:34:55;;;;;;;;;16.25;15.25;;;;;15.39;53.54;101526.09;5073880;28;45417;-61
2021/10/22 09:37:20;;;;;;;;;15.25;11.75;;;;;15.55;53.26;101523.69;5073441;28;45563;-60
2021/10/22 09:39:46;;;;;;;;;10.75;10.25;;;;;15.71;52.64;101516.94;5072206;28;68797;-60
2021/10/22 09:42:13;;;;;;;;;13.50;10.50;;;;;15.89;51.88;101524.16;5073217;28;45422;-61
2021/10/22 09:44:41;;;;;;;;;14.75;12.50;;;;;16.02;51.48;101520.19;5073767;28;45503;-60
2021/10/22 09:47:06;;;;;;;;;9.00;8.00;;;;;16.16;51.17;101524.13;5072277;28;47297;-61
2021/10/22 09:49:35;;;;;;;;;7.25;6.25;;;;;16.28;51.00;101523.94;5072958;28;45379;-61
2021/10/22 09:52:01;;;;;;;;;9.25;5.25;;;;;16.42;49.56;101518.13;5072251;28;45476;-60
2021/10/22 09:54:28;;;;;;;;;4.25;4.25;;;;;16.54;49.61;101533.78;5073068;28;45655;-61
2021/10/22 09:56:54;;;;;;;;;13.25;8.50;;;;;16.65;49.37;101520.31;5071377;28;45522;-60
2021/10/22 09:59:25;;;;;;;;;4.25;4.25;;;;;16.76;49.13;101525.41;5071233;28;45494;-61
2021/10/22 10:01:52;;;;;;;;;4.50;4.00;;;;;16.92;48.51;101524.69;5072662;27;45423;-61
2021/10/22 10:04:17;;;;;;;;;6.75;5.00;;;;;17.08;48.42;101525.00;5054292;28;45478;-61
2021/10/22 10:06:43;;;;;;;;;5.75;5.25;;;;;17.20;47.66;101529.06;5071084;28;74039;-61
2021/10/22 10:09:09;;;;;;;;;4.00;4.00;;;;;17.35;47.09;101530.19;5073147;27;45544;-61
2021/10/22 10:11:36;;;;;;;;;3.75;3.75;;;;;17.50;47.21;101537.53;5073347;28;45459;-60
2021/10/22 10:14:02;;;;;;;;;5.25;4.00;;;;;17.61;46.87;101539.13;5072891;28;45495;-61
2021/10/22 10:16:28;;;;;;;;;3.00;3.00;;;;;17.73;46.80;101539.66;5071827;28;60909;-61
2021/10/22 10:18:57;;;;;;;;;3.00;3.00;;;;;17.87;46.21;101555.03;5071671;28;45406;-60
2021/10/22 10:21:24;;;;;;;;;3.50;3.25;;;;;17.99;45.92;101547.63;5055505;28;45596;-62
2021/10/22 10:23:50;;;;;;;;;3.75;3.00;;;;;18.12;45.36;101547.16;5073214;28;45471;-61
2021/10/22 10:26:29;;;;;;;;;6.50;4.75;;;;;18.21;45.26;101548.03;5057832;28;46448;-61
2021/10/22 10:28:55;;;;;;;;;6.50;3.50;;;;;18.30;45.18;101540.91;5074441;28;45400;-62
2021/10/22 10:31:39;;;;;;;;;5.25;4.00;;;;;18.39;44.79;101540.75;5074288;28;46142;-61
2021/10/22 10:34:28;;;;;;;;;4.00;3.25;;;;;18.49;44.47;101542.44;5075285;28;45351;-61
2021/10/22 10:36:59;;;;;;;;;4.00;3.25;;;;;18.56;43.52;101543.44;5068087;28;45438;-61
2021/10/22 10:39:46;;;;;;;;;4.50;3.00;;;;;18.62;44.10;101544.59;5073982;28;45417;-61
2021/10/22 10:42:52;;;;;;;;;4.75;4.00;;;;;18.69;43.92;101535.81;5072173;27;45286;-61
2021/10/22 10:45:20;;;;;;;;;7.50;6.25;;;;;18.81;43.51;101541.63;5076089;28;45715;-61
2021/10/22 10:47:58;;;;;;;;;5.00;4.00;;;;;18.91;42.95;101537.97;5072731;27;46175;-61
2021/10/22 10:50:41;;;;;;;;;5.25;4.00;;;;;18.95;43.31;101542.78;5074899;28;45417;-61
2021/10/22 10:53:44;;;;;;;;;5.00;3.00;;;;;19.02;42.79;101532.34;5076412;28;45656;-61
2021/10/22 10:56:18;;;;;;;;;6.00;6.00;;;;;19.07;41.79;101535.34;5054222;28;45383;-61
2021/10/22 10:58:45;;;;;;;;;6.00;5.00;;;;;19.14;41.73;101540.81;5076071;28;45461;-61
2021/10/22 11:01:24;;;;;;;;;5.00;2.50;;;;;19.27;41.67;101529.66;5074594;28;45495;-61
2021/10/22 11:03:50;;;;;;;;;3.00;3.00;;;;;19.41;41.87;101534.28;5058617;28;45475;-61
2021/10/22 11:06:47;;;;;;;;;6.00;4.00;;;;;19.57;40.88;101529.94;5076248;28;45441;-61
2021/10/22 11:09:17;;;;;;;;;3.25;3.00;;;;;19.67;41.03;101530.53;5074504;28;46675;-61
2021/10/22 11:11:42;;;;;;;;;5.75;4.00;;;;;19.79;40.53;101525.69;5073864;28;45461;-60
2021/10/22 11:14:08;;;;;;;;;4.75;4.50;;;;;19.90;40.00;101535.16;5076360;28;45469;-61
2021/10/22 11:16:47;;;;;;;;;4.00;4.00;;;;;19.96;40.46;101531.78;5076074;28;45549;-61
2021/10/22 11:19:26;;;;;;;;;4.50;4.50;;;;;20.03;40.17;101534.59;5072836;28;46604;-62
2021/10/22 11:22:01;;;;;;;;;4.00;4.00;;;;;20.16;39.03;101529.53;5075519;27;46135;-60
2021/10/22 11:24:30;;;;;;;;;7.25;5.00;;;;;20.26;38.57;101533.81;5075478;27;45487;-61